Main page
METAR-TAF:

METAR-TAF

Airports :

Kuala Lumpur, Malaysia

Kuala Lumpur International Airport

latitude: 02-44N, longitude: 101-42E, elevation: 21 m

Current weather observation

The report was made 36 minutes ago, at 16:00 UTC
Wind 1 kt from variable directions
Temperature 27°C
Humidity 79%
Pressure 1011 hPa
Visibility 10 km or more
Few clouds at a height of 3000 ft
Scattered clouds at a height of 14000 ft
Broken clouds at a height of 28000 ft

METAR: WMKK 221600Z VRB01KT 9999 FEW030 SCT140 BKN280 27/23 Q1011 NOSIG

Time: 00:36 (16:36 UTC)

Forecast

The report was made 5 hours and 36 minutes ago, at 11:00 UTC
Forecast valid from 22 at 12 UTC to 23 at 18 UTC
Wind 5 kt from the South
Visibility 10 km or more
Few clouds at a height of 1700 ft, Cumulonimbus.
Broken clouds at a height of 28000 ft

TAF: WMKK 221100Z 2212/2318 17005KT 9999 FEW017CB BKN280

Weather observations and forecasts of more than 4000 airports (METAR and TAF reports).

The available stations are represented by yellow and red dots on the map.

Hover mouse over dot to see the name of the station.

Then click to see weather observations and forecasts.

To change the map : click on the green buttons with a black cross to zoom in, on the green button with a dash to zoom out, or on the green arrows for adjacent maps.


METAR-TAF: